sensor_id;sensor_type;location;lat;lon;timestamp;pressure;altitude;pressure_sealevel;temperature;humidity
71107;BME280;58763;47.982;11.516;2023-08-07T00:00:22;93900.47;;;10.18;86.33
71107;BME280;58763;47.982;11.516;2023-08-07T00:02:48;93900.84;;;10.12;87.60
71107;BME280;58763;47.982;11.516;2023-08-07T00:05:15;93905.69;;;10.10;87.19
71107;BME280;58763;47.982;11.516;2023-08-07T00:07:42;93917.38;;;10.05;85.40
71107;BME280;58763;47.982;11.516;2023-08-07T00:10:08;93917.41;;;10.00;88.17
71107;BME280;58763;47.982;11.516;2023-08-07T00:12:33;93917.47;;;9.95;86.90
71107;BME280;58763;47.982;11.516;2023-08-07T00:14:59;93921.34;;;9.89;87.49
71107;BME280;58763;47.982;11.516;2023-08-07T00:17:24;93920.06;;;9.82;86.81
71107;BME280;58763;47.982;11.516;2023-08-07T00:19:50;93931.69;;;9.82;87.93
71107;BME280;58763;47.982;11.516;2023-08-07T00:22:15;93944.13;;;9.78;87.84
71107;BME280;58763;47.982;11.516;2023-08-07T00:24:41;93929.59;;;9.74;86.83
71107;BME280;58763;47.982;11.516;2023-08-07T00:27:07;93929.03;;;9.77;87.79
71107;BME280;58763;47.982;11.516;2023-08-07T00:29:35;93928.78;;;9.73;87.48
71107;BME280;58763;47.982;11.516;2023-08-07T00:32:00;93937.47;;;9.70;86.70
71107;BME280;58763;47.982;11.516;2023-08-07T00:34:25;93934.22;;;9.68;87.38
71107;BME280;58763;47.982;11.516;2023-08-07T00:36:51;93938.03;;;9.67;87.81
71107;BME280;58763;47.982;11.516;2023-08-07T00:39:16;93942.09;;;9.65;87.82
71107;BME280;58763;47.982;11.516;2023-08-07T00:41:42;93945.41;;;9.57;88.20
71107;BME280;58763;47.982;11.516;2023-08-07T00:44:07;93958.97;;;9.52;89.55
71107;BME280;58763;47.982;11.516;2023-08-07T00:46:33;93949.25;;;9.51;90.20
71107;BME280;58763;47.982;11.516;2023-08-07T00:48:58;93960.34;;;9.49;90.83
71107;BME280;58763;47.982;11.516;2023-08-07T00:51:24;93945.53;;;9.47;90.44
71107;BME280;58763;47.982;11.516;2023-08-07T00:53:50;93933.63;;;9.48;90.20
71107;BME280;58763;47.982;11.516;2023-08-07T00:56:16;93948.50;;;9.45;89.10
71107;BME280;58763;47.982;11.516;2023-08-07T00:58:42;93947.41;;;9.46;90.29
71107;BME280;58763;47.982;11.516;2023-08-07T01:01:08;93947.97;;;9.43;91.56
71107;BME280;58763;47.982;11.516;2023-08-07T01:03:34;93949.84;;;9.43;90.77
71107;BME280;58763;47.982;11.516;2023-08-07T01:06:00;93945.56;;;9.42;90.46
71107;BME280;58763;47.982;11.516;2023-08-07T01:08:27;93941.25;;;9.41;90.79
71107;BME280;58763;47.982;11.516;2023-08-07T01:16:48;93942.41;;;9.35;91.57
71107;BME280;58763;47.982;11.516;2023-08-07T01:19:28;93939.72;;;9.30;92.90
71107;BME280;58763;47.982;11.516;2023-08-07T01:22:14;93948.34;;;9.32;93.19
71107;BME280;58763;47.982;11.516;2023-08-07T01:24:47;93940.25;;;9.32;92.47
71107;BME280;58763;47.982;11.516;2023-08-07T01:30:23;93941.94;;;9.23;92.59
71107;BME280;58763;47.982;11.516;2023-08-07T01:35:34;93950.38;;;9.16;93.41
71107;BME280;58763;47.982;11.516;2023-08-07T01:38:00;93959.53;;;9.15;93.77
71107;BME280;58763;47.982;11.516;2023-08-07T01:40:28;93953.88;;;9.17;92.79
71107;BME280;58763;47.982;11.516;2023-08-07T01:42:54;93955.22;;;9.19;93.22
71107;BME280;58763;47.982;11.516;2023-08-07T01:45:26;93957.69;;;9.11;91.78
71107;BME280;58763;47.982;11.516;2023-08-07T01:47:53;93959.31;;;9.12;93.50
71107;BME280;58763;47.982;11.516;2023-08-07T01:50:19;93960.66;;;9.14;94.29
71107;BME280;58763;47.982;11.516;2023-08-07T01:52:45;93960.38;;;9.11;94.31
71107;BME280;58763;47.982;11.516;2023-08-07T01:55:15;93968.00;;;9.03;92.46
71107;BME280;58763;47.982;11.516;2023-08-07T01:57:41;93958.88;;;8.99;92.63
71107;BME280;58763;47.982;11.516;2023-08-07T02:00:07;93965.88;;;9.00;92.67
71107;BME280;58763;47.982;11.516;2023-08-07T02:02:34;93962.38;;;9.00;92.39
71107;BME280;58763;47.982;11.516;2023-08-07T02:04:59;93960.41;;;9.05;92.99
71107;BME280;58763;47.982;11.516;2023-08-07T02:07:25;93965.28;;;9.03;93.47
71107;BME280;58763;47.982;11.516;2023-08-07T02:09:50;93968.59;;;8.95;93.75
71107;BME280;58763;47.982;11.516;2023-08-07T02:12:15;93972.91;;;8.96;92.83
71107;BME280;58763;47.982;11.516;2023-08-07T02:14:41;93958.38;;;8.92;92.49
71107;BME280;58763;47.982;11.516;2023-08-07T02:17:06;93972.91;;;8.96;93.87
71107;BME280;58763;47.982;11.516;2023-08-07T02:19:32;93973.47;;;8.93;93.44
71107;BME280;58763;47.982;11.516;2023-08-07T02:21:57;93962.13;;;8.96;92.47
71107;BME280;58763;47.982;11.516;2023-08-07T02:24:23;93957.16;;;9.09;92.76
71107;BME280;58763;47.982;11.516;2023-08-07T02:26:48;93958.75;;;9.15;92.16
71107;BME280;58763;47.982;11.516;2023-08-07T02:29:14;93959.03;;;9.13;92.81
71107;BME280;58763;47.982;11.516;2023-08-07T02:31:39;93962.97;;;9.26;92.54
71107;BME280;58763;47.982;11.516;2023-08-07T02:34:04;93957.66;;;9.16;92.73
71107;BME280;58763;47.982;11.516;2023-08-07T02:36:30;93969.00;;;9.13;93.18
71107;BME280;58763;47.982;11.516;2023-08-07T02:38:55;93977.09;;;9.13;93.62
71107;BME280;58763;47.982;11.516;2023-08-07T02:41:21;93974.97;;;9.10;93.21
71107;BME280;58763;47.982;11.516;2023-08-07T02:43:47;93973.88;;;9.11;93.33
71107;BME280;58763;47.982;11.516;2023-08-07T02:46:12;93975.78;;;9.10;93.76
71107;BME280;58763;47.982;11.516;2023-08-07T02:48:38;93973.91;;;9.05;93.49
71107;BME280;58763;47.982;11.516;2023-08-07T02:51:05;93975.78;;;9.10;92.69
71107;BME280;58763;47.982;11.516;2023-08-07T02:53:30;93970.59;;;9.19;92.80
71107;BME280;58763;47.982;11.516;2023-08-07T02:55:56;93964.69;;;9.17;92.88
71107;BME280;58763;47.982;11.516;2023-08-07T02:58:22;93968.47;;;9.11;92.30
71107;BME280;58763;47.982;11.516;2023-08-07T03:00:47;93973.66;;;9.07;92.51
71107;BME280;58763;47.982;11.516;2023-08-07T03:03:12;93986.28;;;9.12;93.20
71107;BME280;58763;47.982;11.516;2023-08-07T03:05:38;93984.16;;;9.09;92.61
71107;BME280;58763;47.982;11.516;2023-08-07T03:08:03;93986.63;;;9.05;92.73
71107;BME280;58763;47.982;11.516;2023-08-07T03:10:29;93991.41;;;9.08;91.92
71107;BME280;58763;47.982;11.516;2023-08-07T03:12:54;93995.38;;;9.21;91.13
71107;BME280;58763;47.982;11.516;2023-08-07T03:15:19;93995.13;;;9.17;91.05
71107;BME280;58763;47.982;11.516;2023-08-07T03:17:45;93987.59;;;9.19;90.67
71107;BME280;58763;47.982;11.516;2023-08-07T03:20:11;93983.56;;;9.17;90.55
71107;BME280;58763;47.982;11.516;2023-08-07T03:22:36;93986.78;;;9.19;90.44
71107;BME280;58763;47.982;11.516;2023-08-07T03:25:02;93990.00;;;9.21;90.33
71107;BME280;58763;47.982;11.516;2023-08-07T03:27:27;93991.03;;;9.25;89.94
71107;BME280;58763;47.982;11.516;2023-08-07T03:29:53;93992.13;;;9.24;89.59
71107;BME280;58763;47.982;11.516;2023-08-07T03:32:19;93991.56;;;9.27;90.50
71107;BME280;58763;47.982;11.516;2023-08-07T03:34:44;93998.56;;;9.28;88.91
71107;BME280;58763;47.982;11.516;2023-08-07T03:37:09;93991.53;;;9.32;87.94
71107;BME280;58763;47.982;11.516;2023-08-07T03:39:35;94003.94;;;9.33;88.44
71107;BME280;58763;47.982;11.516;2023-08-07T03:42:00;94002.31;;;9.32;89.37
71107;BME280;58763;47.982;11.516;2023-08-07T03:44:26;94010.69;;;9.30;89.79
71107;BME280;58763;47.982;11.516;2023-08-07T03:46:51;94003.38;;;9.36;88.91
71107;BME280;58763;47.982;11.516;2023-08-07T03:49:17;94014.63;;;9.43;88.05
71107;BME280;58763;47.982;11.516;2023-08-07T03:51:42;94022.69;;;9.48;87.99
71107;BME280;58763;47.982;11.516;2023-08-07T03:54:08;94021.09;;;9.47;88.01
71107;BME280;58763;47.982;11.516;2023-08-07T03:56:33;94013.00;;;9.47;87.46
71107;BME280;58763;47.982;11.516;2023-08-07T03:59:02;94021.91;;;9.47;87.81
71107;BME280;58763;47.982;11.516;2023-08-07T04:01:28;94016.78;;;9.46;88.07
71107;BME280;58763;47.982;11.516;2023-08-07T04:03:53;94024.31;;;9.49;87.41
71107;BME280;58763;47.982;11.516;2023-08-07T04:06:19;94031.88;;;9.47;87.31
71107;BME280;58763;47.982;11.516;2023-08-07T04:08:46;94022.66;;;9.53;85.56
71107;BME280;58763;47.982;11.516;2023-08-07T04:11:12;94033.44;;;9.53;86.50
71107;BME280;58763;47.982;11.516;2023-08-07T04:13:37;94031.56;;;9.53;85.08
71107;BME280;58763;47.982;11.516;2023-08-07T04:16:04;94020.75;;;9.53;85.43
71107;BME280;58763;47.982;11.516;2023-08-07T04:18:33;94025.03;;;9.59;84.92
71107;BME280;58763;47.982;11.516;2023-08-07T04:20:58;94029.34;;;9.60;85.25
71107;BME280;58763;47.982;11.516;2023-08-07T04:23:24;94035.78;;;9.64;84.23
71107;BME280;58763;47.982;11.516;2023-08-07T04:25:51;94023.91;;;9.65;84.14
71107;BME280;58763;47.982;11.516;2023-08-07T04:28:17;94029.88;;;9.62;85.23
71107;BME280;58763;47.982;11.516;2023-08-07T04:30:44;94045.50;;;9.65;84.19
71107;BME280;58763;47.982;11.516;2023-08-07T04:33:10;94043.31;;;9.67;83.81
71107;BME280;58763;47.982;11.516;2023-08-07T04:35:35;94042.00;;;9.65;83.68
71107;BME280;58763;47.982;11.516;2023-08-07T04:38:01;94037.09;;;9.67;82.49
71107;BME280;58763;47.982;11.516;2023-08-07T04:40:28;94060.34;;;9.68;82.36
71107;BME280;58763;47.982;11.516;2023-08-07T04:42:53;94042.50;;;9.67;82.31
71107;BME280;58763;47.982;11.516;2023-08-07T04:45:19;94047.91;;;9.67;82.83
71107;BME280;58763;47.982;11.516;2023-08-07T04:47:44;94052.50;;;9.66;81.65
71107;BME280;58763;47.982;11.516;2023-08-07T04:50:10;94041.16;;;9.69;81.77
71107;BME280;58763;47.982;11.516;2023-08-07T04:52:35;94059.75;;;9.71;81.69
71107;BME280;58763;47.982;11.516;2023-08-07T04:55:01;94051.66;;;9.71;80.99
71107;BME280;58763;47.982;11.516;2023-08-07T04:57:27;94054.09;;;9.72;82.75
71107;BME280;58763;47.982;11.516;2023-08-07T04:59:52;94045.69;;;9.74;80.89
71107;BME280;58763;47.982;11.516;2023-08-07T05:02:19;94064.59;;;9.74;80.80
71107;BME280;58763;47.982;11.516;2023-08-07T05:04:44;94059.44;;;9.78;80.89
71107;BME280;58763;47.982;11.516;2023-08-07T05:07:10;94055.13;;;9.77;80.28
71107;BME280;58763;47.982;11.516;2023-08-07T05:09:36;94049.72;;;9.77;80.97
71107;BME280;58763;47.982;11.516;2023-08-07T05:12:02;94055.94;;;9.77;81.66
71107;BME280;58763;47.982;11.516;2023-08-07T05:14:29;94067.25;;;9.79;80.85
71107;BME280;58763;47.982;11.516;2023-08-07T05:16:54;94062.66;;;9.80;79.72
71107;BME280;58763;47.982;11.516;2023-08-07T05:19:20;94072.66;;;9.79;81.08
71107;BME280;58763;47.982;11.516;2023-08-07T05:21:45;94075.06;;;9.81;79.73
71107;BME280;58763;47.982;11.516;2023-08-07T05:24:15;94070.47;;;9.81;79.92
71107;BME280;58763;47.982;11.516;2023-08-07T05:26:40;94070.47;;;9.81;79.75
71107;BME280;58763;47.982;11.516;2023-08-07T05:29:06;94092.06;;;9.81;79.00
71107;BME280;58763;47.982;11.516;2023-08-07T05:31:33;94086.16;;;9.79;77.80
71107;BME280;58763;47.982;11.516;2023-08-07T05:33:59;94081.28;;;9.81;78.69
71107;BME280;58763;47.982;11.516;2023-08-07T05:36:24;94092.88;;;9.82;78.69
71107;BME280;58763;47.982;11.516;2023-08-07T05:38:50;94089.66;;;9.80;78.30
71107;BME280;58763;47.982;11.516;2023-08-07T05:41:16;94085.13;;;9.75;77.49
71107;BME280;58763;47.982;11.516;2023-08-07T05:43:42;94092.16;;;9.71;78.04
71107;BME280;58763;47.982;11.516;2023-08-07T05:46:07;94089.75;;;9.69;78.79
71107;BME280;58763;47.982;11.516;2023-08-07T05:48:33;94087.34;;;9.68;78.87
71107;BME280;58763;47.982;11.516;2023-08-07T05:50:58;94090.03;;;9.68;79.12
71107;BME280;58763;47.982;11.516;2023-08-07T05:53:24;94092.72;;;9.68;79.79
71107;BME280;58763;47.982;11.516;2023-08-07T05:55:49;94095.69;;;9.66;78.56
71107;BME280;58763;47.982;11.516;2023-08-07T05:58:15;94106.78;;;9.65;79.15
71107;BME280;58763;47.982;11.516;2023-08-07T06:00:40;94106.25;;;9.63;78.55
71107;BME280;58763;47.982;11.516;2023-08-07T06:03:06;94107.81;;;9.69;79.66
71107;BME280;58763;47.982;11.516;2023-08-07T06:05:32;94104.28;;;9.73;78.65
71107;BME280;58763;47.982;11.516;2023-08-07T06:07:57;94101.06;;;9.71;78.26
71107;BME280;58763;47.982;11.516;2023-08-07T06:10:23;94119.16;;;9.71;78.28
71107;BME280;58763;47.982;11.516;2023-08-07T06:12:48;94115.13;;;9.68;79.09
71107;BME280;58763;47.982;11.516;2023-08-07T06:15:14;94111.59;;;9.73;79.94
71107;BME280;58763;47.982;11.516;2023-08-07T06:17:39;94114.28;;;9.73;79.16
71107;BME280;58763;47.982;11.516;2023-08-07T06:20:07;94122.63;;;9.77;78.67
71107;BME280;58763;47.982;11.516;2023-08-07T06:22:34;94121.25;;;9.79;78.58
71107;BME280;58763;47.982;11.516;2023-08-07T06:25:00;94128.75;;;9.87;78.98
71107;BME280;58763;47.982;11.516;2023-08-07T06:27:26;94113.59;;;9.91;79.53
71107;BME280;58763;47.982;11.516;2023-08-07T06:29:51;94124.63;;;9.95;78.25
71107;BME280;58763;47.982;11.516;2023-08-07T06:32:17;94116.50;;;10.00;78.01
71107;BME280;58763;47.982;11.516;2023-08-07T06:34:43;94122.91;;;10.09;77.35
71107;BME280;58763;47.982;11.516;2023-08-07T06:37:09;94126.66;;;10.13;74.97
71107;BME280;58763;47.982;11.516;2023-08-07T06:39:35;94125.59;;;10.14;76.37
71107;BME280;58763;47.982;11.516;2023-08-07T06:42:00;94136.03;;;10.25;77.79
71107;BME280;58763;47.982;11.516;2023-08-07T06:44:26;94128.91;;;10.34;75.42
71107;BME280;58763;47.982;11.516;2023-08-07T06:46:51;94131.00;;;10.43;75.11
71107;BME280;58763;47.982;11.516;2023-08-07T06:49:17;94124.41;;;10.54;73.75
71107;BME280;58763;47.982;11.516;2023-08-07T06:51:43;94135.22;;;10.54;73.72
71107;BME280;58763;47.982;11.516;2023-08-07T06:54:08;94129.81;;;10.54;73.18
71107;BME280;58763;47.982;11.516;2023-08-07T06:56:33;94138.69;;;10.59;73.00
71107;BME280;58763;47.982;11.516;2023-08-07T06:58:59;94141.03;;;10.66;72.87
71107;BME280;58763;47.982;11.516;2023-08-07T07:01:24;94144.78;;;10.70;72.39
71107;BME280;58763;47.982;11.516;2023-08-07T07:03:50;94143.09;;;10.74;71.68
71107;BME280;58763;47.982;11.516;2023-08-07T07:06:18;94137.13;;;10.77;71.54
71107;BME280;58763;47.982;11.516;2023-08-07T07:08:44;94137.13;;;10.77;72.27
71107;BME280;58763;47.982;11.516;2023-08-07T07:11:09;94137.28;;;10.85;72.80
71107;BME280;58763;47.982;11.516;2023-08-07T07:13:35;94144.53;;;10.90;71.78
71107;BME280;58763;47.982;11.516;2023-08-07T07:16:00;94146.22;;;11.09;71.76
71107;BME280;58763;47.982;11.516;2023-08-07T07:18:27;94152.53;;;11.24;70.53
71107;BME280;58763;47.982;11.516;2023-08-07T07:20:57;94158.97;;;11.28;68.38
71107;BME280;58763;47.982;11.516;2023-08-07T07:23:23;94175.22;;;11.28;67.08
71107;BME280;58763;47.982;11.516;2023-08-07T07:25:49;94161.09;;;11.31;67.82
71107;BME280;58763;47.982;11.516;2023-08-07T07:28:14;94166.72;;;11.34;68.04
71107;BME280;58763;47.982;11.516;2023-08-07T07:30:39;94165.59;;;11.40;67.49
71107;BME280;58763;47.982;11.516;2023-08-07T07:33:05;94164.91;;;11.48;69.07
71107;BME280;58763;47.982;11.516;2023-08-07T07:35:30;94164.91;;;11.48;69.86
71107;BME280;58763;47.982;11.516;2023-08-07T07:37:56;94161.63;;;11.51;69.58
71107;BME280;58763;47.982;11.516;2023-08-07T07:40:22;94172.97;;;11.53;68.26
71107;BME280;58763;47.982;11.516;2023-08-07T07:42:47;94161.34;;;11.53;67.42
71107;BME280;58763;47.982;11.516;2023-08-07T07:45:12;94179.63;;;11.42;66.53
71107;BME280;58763;47.982;11.516;2023-08-07T07:47:38;94184.03;;;11.38;67.36
71107;BME280;58763;47.982;11.516;2023-08-07T07:50:05;94186.13;;;11.41;69.22
71107;BME280;58763;47.982;11.516;2023-08-07T07:52:32;94193.69;;;11.44;68.77
71107;BME280;58763;47.982;11.516;2023-08-07T07:54:58;94176.34;;;11.45;68.39
71107;BME280;58763;47.982;11.516;2023-08-07T07:57:23;94189.28;;;11.48;68.28
71107;BME280;58763;47.982;11.516;2023-08-07T07:59:49;94186.91;;;11.65;68.30
71107;BME280;58763;47.982;11.516;2023-08-07T08:02:15;94195.75;;;11.76;68.08
71107;BME280;58763;47.982;11.516;2023-08-07T08:04:43;94190.09;;;11.72;66.14
71107;BME280;58763;47.982;11.516;2023-08-07T08:07:08;94198.84;;;11.64;66.63
71107;BME280;58763;47.982;11.516;2023-08-07T08:09:34;94199.31;;;11.71;67.80
71107;BME280;58763;47.982;11.516;2023-08-07T08:11:59;94199.03;;;11.73;65.49
71107;BME280;58763;47.982;11.516;2023-08-07T08:14:25;94197.78;;;11.84;67.01
71107;BME280;58763;47.982;11.516;2023-08-07T08:16:50;94208.75;;;11.93;65.98
71107;BME280;58763;47.982;11.516;2023-08-07T08:19:16;94205.47;;;11.96;65.57
71107;BME280;58763;47.982;11.516;2023-08-07T08:21:42;94206.84;;;11.93;65.70
71107;BME280;58763;47.982;11.516;2023-08-07T08:24:07;94224.94;;;11.98;66.39
71107;BME280;58763;47.982;11.516;2023-08-07T08:26:33;94203.13;;;11.89;66.69
71107;BME280;58763;47.982;11.516;2023-08-07T08:28:59;94208.75;;;11.93;66.14
71107;BME280;58763;47.982;11.516;2023-08-07T08:31:25;94226.25;;;11.82;65.79
71107;BME280;58763;47.982;11.516;2023-08-07T08:33:51;94229.13;;;11.71;65.61
71107;BME280;58763;47.982;11.516;2023-08-07T08:36:16;94247.53;;;11.69;65.92
71107;BME280;58763;47.982;11.516;2023-08-07T08:38:43;94221.00;;;11.71;65.73
71107;BME280;58763;47.982;11.516;2023-08-07T08:41:10;94219.50;;;11.79;66.07
71107;BME280;58763;47.982;11.516;2023-08-07T08:43:37;94218.88;;;11.87;65.95
71107;BME280;58763;47.982;11.516;2023-08-07T08:46:05;94218.94;;;12.01;66.42
71107;BME280;58763;47.982;11.516;2023-08-07T08:48:35;94207.47;;;12.09;64.21
71107;BME280;58763;47.982;11.516;2023-08-07T08:51:02;94213.72;;;12.23;64.25
71107;BME280;58763;47.982;11.516;2023-08-07T08:53:30;94222.00;;;12.31;66.17
71107;BME280;58763;47.982;11.516;2023-08-07T08:55:56;94212.03;;;12.45;65.95
71107;BME280;58763;47.982;11.516;2023-08-07T08:58:22;94224.78;;;12.45;62.90
71107;BME280;58763;47.982;11.516;2023-08-07T09:00:49;94230.69;;;12.47;63.89
71107;BME280;58763;47.982;11.516;2023-08-07T09:03:17;94233.91;;;12.49;63.10
71107;BME280;58763;47.982;11.516;2023-08-07T09:05:43;94253.22;;;12.47;63.20
71107;BME280;58763;47.982;11.516;2023-08-07T09:08:09;94241.69;;;12.37;63.13
71107;BME280;58763;47.982;11.516;2023-08-07T09:10:35;94232.84;;;12.31;63.01
71107;BME280;58763;47.982;11.516;2023-08-07T09:13:04;94232.28;;;12.34;64.16
71107;BME280;58763;47.982;11.516;2023-08-07T09:15:35;94237.31;;;12.41;64.78
71107;BME280;58763;47.982;11.516;2023-08-07T09:18:03;94237.47;;;12.31;64.31
71107;BME280;58763;47.982;11.516;2023-08-07T09:20:30;94231.31;;;12.25;65.28
71107;BME280;58763;47.982;11.516;2023-08-07T09:22:56;94241.38;;;12.25;66.40
71107;BME280;58763;47.982;11.516;2023-08-07T09:25:30;94243.84;;;12.21;66.27
71107;BME280;58763;47.982;11.516;2023-08-07T09:27:56;94249.13;;;12.13;65.93
71107;BME280;58763;47.982;11.516;2023-08-07T09:30:29;94242.38;;;12.10;66.61
71107;BME280;58763;47.982;11.516;2023-08-07T09:32:59;94236.97;;;12.10;66.57
71107;BME280;58763;47.982;11.516;2023-08-07T09:35:25;94246.50;;;12.08;67.70
71107;BME280;58763;47.982;11.516;2023-08-07T09:37:51;94243.72;;;12.13;68.35
71107;BME280;58763;47.982;11.516;2023-08-07T09:40:18;94246.88;;;12.20;67.26
71107;BME280;58763;47.982;11.516;2023-08-07T09:42:44;94245.97;;;12.24;66.92
71107;BME280;58763;47.982;11.516;2023-08-07T09:45:20;94250.94;;;12.36;67.46
71107;BME280;58763;47.982;11.516;2023-08-07T09:47:46;94251.66;;;12.23;66.50
71107;BME280;58763;47.982;11.516;2023-08-07T09:50:16;94254.13;;;12.24;67.69
71107;BME280;58763;47.982;11.516;2023-08-07T09:52:48;94252.28;;;12.20;67.81
71107;BME280;58763;47.982;11.516;2023-08-07T09:55:15;94252.28;;;12.20;67.98
71107;BME280;58763;47.982;11.516;2023-08-07T09:57:45;94246.88;;;12.20;68.17
71107;BME280;58763;47.982;11.516;2023-08-07T10:00:11;94242.88;;;12.31;68.34
71107;BME280;58763;47.982;11.516;2023-08-07T10:02:38;94246.84;;;12.38;68.56
71107;BME280;58763;47.982;11.516;2023-08-07T10:05:05;94246.78;;;12.43;67.33
71107;BME280;58763;47.982;11.516;2023-08-07T10:07:32;94252.63;;;12.51;67.25
71107;BME280;58763;47.982;11.516;2023-08-07T10:10:02;94250.50;;;12.47;67.65
71107;BME280;58763;47.982;11.516;2023-08-07T10:12:29;94256.16;;;12.32;67.35
71107;BME280;58763;47.982;11.516;2023-08-07T10:14:55;94247.38;;;12.22;67.11
71107;BME280;58763;47.982;11.516;2023-08-07T10:17:24;94253.16;;;12.15;70.31
71107;BME280;58763;47.982;11.516;2023-08-07T10:19:51;94249.63;;;11.96;72.38
71107;BME280;58763;47.982;11.516;2023-08-07T10:22:21;94251.00;;;11.75;73.31
71107;BME280;58763;47.982;11.516;2023-08-07T10:24:50;94237.97;;;11.77;75.12
71107;BME280;58763;47.982;11.516;2023-08-07T10:27:18;94236.47;;;11.90;74.54
71107;BME280;58763;47.982;11.516;2023-08-07T10:29:46;94239.44;;;12.07;75.36
71107;BME280;58763;47.982;11.516;2023-08-07T10:32:14;94234.63;;;12.22;72.68
71107;BME280;58763;47.982;11.516;2023-08-07T10:34:42;94230.34;;;12.35;71.71
71107;BME280;58763;47.982;11.516;2023-08-07T10:40:04;94227.97;;;12.79;69.88
71107;BME280;58763;47.982;11.516;2023-08-07T10:42:57;94217.16;;;12.93;68.55
71107;BME280;58763;47.982;11.516;2023-08-07T10:45:24;94220.34;;;13.13;68.61
71107;BME280;58763;47.982;11.516;2023-08-07T10:48:12;94221.28;;;13.36;67.92
71107;BME280;58763;47.982;11.516;2023-08-07T10:50:58;94215.94;;;13.45;65.70
71107;BME280;58763;47.982;11.516;2023-08-07T10:53:34;94205.88;;;13.45;63.58
71107;BME280;58763;47.982;11.516;2023-08-07T10:58:37;94220.97;;;13.65;63.63
71107;BME280;58763;47.982;11.516;2023-08-07T11:01:17;94239.38;;;13.68;62.32
71107;BME280;58763;47.982;11.516;2023-08-07T11:06:21;94214.81;;;13.73;62.96
71107;BME280;58763;47.982;11.516;2023-08-07T11:08:48;94211.41;;;13.54;63.62
71107;BME280;58763;47.982;11.516;2023-08-07T11:11:13;94220.34;;;13.68;65.23
71107;BME280;58763;47.982;11.516;2023-08-07T11:13:39;94204.41;;;13.88;63.78
71107;BME280;58763;47.982;11.516;2023-08-07T11:16:05;94219.75;;;14.20;62.41
71107;BME280;58763;47.982;11.516;2023-08-07T11:18:33;94214.97;;;14.62;62.92
71107;BME280;58763;47.982;11.516;2023-08-07T11:21:04;94218.06;;;14.91;61.51
71107;BME280;58763;47.982;11.516;2023-08-07T11:23:29;94211.81;;;14.90;60.38
71107;BME280;58763;47.982;11.516;2023-08-07T11:25:55;94219.03;;;14.95;59.92
71107;BME280;58763;47.982;11.516;2023-08-07T11:28:27;94218.78;;;15.05;59.90
71107;BME280;58763;47.982;11.516;2023-08-07T11:30:53;94213.56;;;14.86;59.02
71107;BME280;58763;47.982;11.516;2023-08-07T11:33:21;94213.16;;;15.01;61.01
71107;BME280;58763;47.982;11.516;2023-08-07T11:35:49;94221.00;;;15.34;58.84
71107;BME280;58763;47.982;11.516;2023-08-07T11:38:34;94229.03;;;15.39;58.76
71107;BME280;58763;47.982;11.516;2023-08-07T11:41:01;94223.31;;;15.79;58.16
71107;BME280;58763;47.982;11.516;2023-08-07T11:43:30;94217.44;;;16.12;56.61
71107;BME280;58763;47.982;11.516;2023-08-07T11:46:07;94203.81;;;16.29;55.36
71107;BME280;58763;47.982;11.516;2023-08-07T11:48:35;94208.63;;;16.23;55.17
71107;BME280;58763;47.982;11.516;2023-08-07T11:51:01;94219.22;;;16.50;56.80
71107;BME280;58763;47.982;11.516;2023-08-07T11:53:29;94196.88;;;16.31;55.11
71107;BME280;58763;47.982;11.516;2023-08-07T11:55:57;94202.19;;;16.36;54.94
71107;BME280;58763;47.982;11.516;2023-08-07T11:58:33;94196.25;;;16.43;54.86
71107;BME280;58763;47.982;11.516;2023-08-07T12:01:04;94212.94;;;16.50;55.84
71107;BME280;58763;47.982;11.516;2023-08-07T12:03:31;94205.94;;;16.66;55.59
71107;BME280;58763;47.982;11.516;2023-08-07T12:05:58;94209.09;;;16.94;56.09
71107;BME280;58763;47.982;11.516;2023-08-07T12:08:31;94221.13;;;17.01;52.44
71107;BME280;58763;47.982;11.516;2023-08-07T12:10:57;94211.50;;;16.95;51.61
71107;BME280;58763;47.982;11.516;2023-08-07T12:13:24;94211.84;;;16.85;52.13
71107;BME280;58763;47.982;11.516;2023-08-07T12:15:54;94219.53;;;17.00;52.69
71107;BME280;58763;47.982;11.516;2023-08-07T12:18:20;94225.00;;;17.00;52.93
71107;BME280;58763;47.982;11.516;2023-08-07T12:20:49;94211.34;;;16.83;51.48
71107;BME280;58763;47.982;11.516;2023-08-07T12:23:15;94232.25;;;16.79;53.44
71107;BME280;58763;47.982;11.516;2023-08-07T12:25:44;94230.28;;;16.45;54.15
71107;BME280;58763;47.982;11.516;2023-08-07T12:28:10;94220.69;;;16.74;53.23
71107;BME280;58763;47.982;11.516;2023-08-07T12:30:36;94218.44;;;16.58;52.10
71107;BME280;58763;47.982;11.516;2023-08-07T12:33:02;94216.97;;;16.44;52.26
71107;BME280;58763;47.982;11.516;2023-08-07T12:35:33;94232.16;;;16.02;52.80
71107;BME280;58763;47.982;11.516;2023-08-07T12:38:00;94236.59;;;15.72;53.11
71107;BME280;58763;47.982;11.516;2023-08-07T12:40:26;94257.66;;;15.50;54.94
71107;BME280;58763;47.982;11.516;2023-08-07T12:42:52;94237.09;;;15.44;54.57
71107;BME280;58763;47.982;11.516;2023-08-07T12:45:17;94245.97;;;15.49;55.86
71107;BME280;58763;47.982;11.516;2023-08-07T12:47:45;94253.28;;;15.40;56.23
71107;BME280;58763;47.982;11.516;2023-08-07T12:50:10;94261.88;;;15.34;56.29
71107;BME280;58763;47.982;11.516;2023-08-07T12:52:36;94270.75;;;15.17;58.43
71107;BME280;58763;47.982;11.516;2023-08-07T12:55:01;94279.13;;;14.98;58.45
71107;BME280;58763;47.982;11.516;2023-08-07T12:57:27;94268.06;;;14.95;61.06
71107;BME280;58763;47.982;11.516;2023-08-07T12:59:52;94275.84;;;14.88;59.89
71107;BME280;58763;47.982;11.516;2023-08-07T13:02:18;94263.22;;;14.92;60.00
71107;BME280;58763;47.982;11.516;2023-08-07T13:04:43;94275.09;;;14.74;58.12
71107;BME280;58763;47.982;11.516;2023-08-07T13:07:09;94274.72;;;14.67;58.04
71107;BME280;58763;47.982;11.516;2023-08-07T13:09:34;94278.66;;;14.74;58.55
71107;BME280;58763;47.982;11.516;2023-08-07T13:12:00;94286.94;;;14.69;57.28